Portada
METAR-TAF:

METAR-TAF

Aeropuertos :

Aeropuerto Internacional de El Cairo

El Cairo, Egipto

latitud: 30-08N, longitud: 031-24E, altitud: 64 m

Observación

El informe se hizo hace 7 minutos, a las 06:30 UTC
Viento 9 kt del noroeste
Temperatura 28°C
Humedad 66%
Presión 1009 hPa
Visibilidad 10 km o más
Nubes dispersas a una altura de 2500 ft

METAR: HECA 220630Z 32009KT 9999 SCT025 28/21 Q1009 NOSIG

Hora: 08:37 (06:37 UTC)

Pronóstico

El informe se hizo hace 1 hora y 37 minutos, a las 05:00 UTC
Pronóstico válido del 22 a las 06 UTC al 23 a las 12 UTC
Viento 10 kt del noroeste
Visibilidad 10 km o más
sin nubes por debajo de 1500 m y sin presencia de cumulonimbus.

TAF: HECA 220500Z 2206/2312 32010KT CAVOK

Observaciones y pronósticos meteorológicos de más de 4000 aeropuertos (mensajes METAR y TAF).

Los puntos amarillos y rojos representan las estaciones disponibles.

Ponga el ratón en el punto deseado para ver el nombre de la estación.

Haga clic para ver las observaciones y los pronósticos meteorológicos.

Para cambiar el mapa : haga clic en los botones verdes con una cruz de color negro para hacer un zoom, en el botón verde con un guión para alejar o en las flechas verdes para mapas adyacentes.


METAR-TAF: